createdAt,value
2019-03-24T00:01:41.010Z,23.27
2019-03-24T00:04:39.888Z,27.03
2019-03-24T00:07:44.538Z,21.30
2019-03-24T00:10:49.359Z,29.60
2019-03-24T00:13:53.967Z,23.30
2019-03-24T00:16:58.674Z,24.63
2019-03-24T00:20:03.354Z,25.23
2019-03-24T00:23:08.122Z,22.83
2019-03-24T00:26:14.574Z,24.17
2019-03-24T00:29:20.569Z,39.17
2019-03-24T00:32:26.157Z,40.40
2019-03-24T00:35:31.363Z,27.43
2019-03-24T00:38:36.179Z,30.90
2019-03-24T00:41:40.966Z,24.57
2019-03-24T00:44:45.626Z,25.97
2019-03-24T00:47:50.632Z,22.63
2019-03-24T00:50:55.386Z,29.80
2019-03-24T00:54:00.070Z,27.87
2019-03-24T00:57:04.808Z,27.00
2019-03-24T01:00:10.604Z,31.87
2019-03-24T01:03:16.197Z,31.63
2019-03-24T01:06:21.184Z,31.53
2019-03-24T01:09:25.958Z,43.57
2019-03-24T01:12:30.802Z,22.10
2019-03-24T01:15:35.838Z,27.30
2019-03-24T01:18:40.706Z,20.57
2019-03-24T01:21:45.516Z,31.70
2019-03-24T01:24:50.417Z,26.83
2019-03-24T01:27:58.158Z,27.03
2019-03-24T01:31:03.288Z,16.20
2019-03-24T01:34:08.542Z,18.77
2019-03-24T01:37:14.548Z,21.77
2019-03-24T01:40:20.080Z,14.07
2019-03-24T01:43:25.114Z,15.23
2019-03-24T01:46:30.673Z,16.33
2019-03-24T01:49:36.733Z,18.77
2019-03-24T01:52:42.563Z,23.83
2019-03-24T01:55:47.742Z,24.33
2019-03-24T01:58:52.804Z,34.50
2019-03-24T02:02:01.396Z,25.07
2019-03-24T02:05:09.155Z,31.03
2019-03-24T02:08:15.842Z,29.10
2019-03-24T02:11:21.098Z,30.47
2019-03-24T02:14:26.115Z,28.03
2019-03-24T02:17:30.924Z,28.50
2019-03-24T02:20:39.211Z,26.47
2019-03-24T02:23:44.686Z,24.20
2019-03-24T02:26:50.579Z,18.60
2019-03-24T02:29:57.931Z,23.87
2019-03-24T02:33:06.336Z,20.60
2019-03-24T02:36:13.255Z,25.13
2019-03-24T02:39:21.176Z,25.17
2019-03-24T02:42:26.590Z,26.07
2019-03-24T02:45:32.511Z,29.33
2019-03-24T02:48:38.974Z,22.20
2019-03-24T02:51:44.474Z,25.57
2019-03-24T02:54:49.927Z,23.70
2019-03-24T02:57:55.380Z,25.70
2019-03-24T03:01:02.510Z,28.53
2019-03-24T03:04:39.494Z,25.17
2019-03-24T03:08:13.472Z,24.30
2019-03-24T03:11:21.654Z,21.00
2019-03-24T03:14:27.133Z,26.27
2019-03-24T03:17:32.653Z,24.83
2019-03-24T03:20:39.014Z,22.83
2019-03-24T03:23:43.898Z,21.80
2019-03-24T03:26:48.784Z,25.33
2019-03-24T03:29:53.436Z,28.70
2019-03-24T03:32:59.127Z,19.57
2019-03-24T03:36:06.128Z,22.80
2019-03-24T03:39:12.177Z,20.40
2019-03-24T03:42:18.006Z,18.87
2019-03-24T03:45:34.502Z,18.37
2019-03-24T03:48:46.470Z,20.07
2019-03-24T03:51:53.900Z,23.93
2019-03-24T03:54:59.420Z,24.37
2019-03-24T03:58:07.659Z,24.60
2019-03-24T04:01:13.641Z,22.17
2019-03-24T04:04:23.134Z,29.50
2019-03-24T04:07:33.919Z,19.53
2019-03-24T04:10:41.106Z,20.70
2019-03-24T04:13:48.215Z,21.73
2019-03-24T04:17:07.109Z,20.27
2019-03-24T04:20:06.495Z,20.23
2019-03-24T04:23:15.136Z,17.63
2019-03-24T04:26:24.554Z,28.27
2019-03-24T04:29:30.841Z,30.37
2019-03-24T04:32:38.890Z,32.53
2019-03-24T04:35:47.333Z,23.53
2019-03-24T04:38:57.975Z,25.07
2019-03-24T04:42:04.067Z,24.63
2019-03-24T04:45:11.731Z,21.20
2019-03-24T04:48:19.986Z,21.40
2019-03-24T04:51:26.321Z,24.67
2019-03-24T04:54:37.738Z,18.73
2019-03-24T05:15:48.643Z,32.17
2019-03-24T05:19:25.590Z,27.97
2019-03-24T05:28:13.069Z,23.30
2019-03-24T05:31:57.848Z,21.77
2019-03-24T05:48:02.257Z,23.80
2019-03-24T05:51:35.311Z,17.20
2019-03-24T05:55:54.147Z,19.50
2019-03-24T06:16:28.143Z,26.73
2019-03-24T06:29:22.175Z,21.60
2019-03-24T06:42:18.180Z,26.50
2019-03-24T06:46:08.414Z,15.23
2019-03-24T06:49:44.643Z,28.30
2019-03-24T06:53:28.784Z,17.37
2019-03-24T07:00:54.547Z,19.90
2019-03-24T07:04:19.223Z,27.17
2019-03-24T07:12:58.514Z,23.00
2019-03-24T07:16:24.170Z,31.40
2019-03-24T07:19:28.527Z,27.37
2019-03-24T07:22:32.997Z,18.47
2019-03-24T07:25:37.432Z,19.83
2019-03-24T07:28:45.931Z,28.50
2019-03-24T07:31:50.420Z,22.00
2019-03-24T07:34:54.784Z,30.13
2019-03-24T07:37:59.173Z,37.23
2019-03-24T07:41:03.723Z,33.20
2019-03-24T07:44:08.102Z,34.23
2019-03-24T07:47:15.743Z,28.27
2019-03-24T07:50:20.107Z,24.97
2019-03-24T07:53:24.568Z,22.03
2019-03-24T07:56:28.926Z,22.97
2019-03-24T07:59:33.372Z,32.83
2019-03-24T08:02:37.710Z,28.03
2019-03-24T08:05:42.066Z,27.43
2019-03-24T08:08:46.462Z,21.97
2019-03-24T08:11:50.929Z,24.33
2019-03-24T08:14:55.316Z,26.63
2019-03-24T08:17:59.683Z,30.70
2019-03-24T08:21:04.139Z,28.53
2019-03-24T08:24:08.499Z,20.67
2019-03-24T08:27:12.869Z,19.87
2019-03-24T08:30:24.385Z,27.27
2019-03-24T08:33:28.760Z,21.03
2019-03-24T08:36:33.131Z,18.70
2019-03-24T08:39:37.589Z,22.87
2019-03-24T08:42:42.139Z,20.70
2019-03-24T08:45:46.500Z,25.73
2019-03-24T08:48:50.849Z,31.00
2019-03-24T08:51:55.186Z,22.40
2019-03-24T08:54:59.923Z,22.77
2019-03-24T08:58:04.584Z,20.80
2019-03-24T09:01:08.951Z,25.53
2019-03-24T09:04:13.358Z,23.53
2019-03-24T09:07:17.736Z,26.80
2019-03-24T09:10:22.272Z,18.33
2019-03-24T09:13:26.690Z,26.13
2019-03-24T09:16:31.062Z,25.83
2019-03-24T09:19:35.431Z,19.77
2019-03-24T09:22:39.802Z,20.07
2019-03-24T09:25:44.428Z,24.90
2019-03-24T09:28:48.800Z,20.63
2019-03-24T09:31:53.280Z,22.03
2019-03-24T09:34:57.636Z,17.57
2019-03-24T09:38:02.087Z,22.87
2019-03-24T09:41:06.522Z,20.70
2019-03-24T09:44:10.908Z,17.37
2019-03-24T09:47:15.268Z,17.87
2019-03-24T09:50:19.720Z,21.63
2019-03-24T09:53:24.198Z,16.47
2019-03-24T09:56:28.582Z,20.43
2019-03-24T09:59:32.967Z,18.90
2019-03-24T10:02:37.306Z,21.47
2019-03-24T10:05:41.668Z,18.50
2019-03-24T10:08:47.253Z,16.63
2019-03-24T10:11:52.050Z,14.17
2019-03-24T10:14:56.415Z,20.17
2019-03-24T10:18:00.795Z,22.43
2019-03-24T10:21:05.170Z,15.57
2019-03-24T10:24:09.553Z,15.50
2019-03-24T10:27:13.931Z,18.40
2019-03-24T10:30:18.422Z,20.33
2019-03-24T10:33:22.801Z,14.30
2019-03-24T10:36:27.168Z,14.47
2019-03-24T10:39:32.060Z,12.90
2019-03-24T10:42:36.635Z,13.73
2019-03-24T10:45:41.025Z,13.67
2019-03-24T10:48:45.453Z,21.10
2019-03-24T10:51:49.818Z,13.53
2019-03-24T10:54:54.209Z,12.20
2019-03-24T10:57:58.721Z,17.63
2019-03-24T11:01:03.200Z,13.70
2019-03-24T11:04:07.677Z,12.13
2019-03-24T11:07:12.065Z,13.90
2019-03-24T11:10:16.496Z,16.07
2019-03-24T11:13:20.836Z,13.80
2019-03-24T11:16:25.363Z,21.40
2019-03-24T11:19:35.620Z,13.83
2019-03-24T11:22:35.860Z,12.90
2019-03-24T11:25:40.287Z,12.30
2019-03-24T11:28:44.648Z,9.90
2019-03-24T11:31:49.021Z,11.63
2019-03-24T11:34:53.397Z,9.87
2019-03-24T11:37:57.772Z,16.50
2019-03-24T11:41:02.241Z,11.57
2019-03-24T11:44:06.748Z,12.67
2019-03-24T11:47:11.117Z,13.67
2019-03-24T11:50:15.758Z,13.33
2019-03-24T11:53:20.121Z,10.37
2019-03-24T11:56:24.493Z,13.63
2019-03-24T11:59:28.933Z,10.07
2019-03-24T12:02:33.289Z,8.23
2019-03-24T12:05:37.889Z,14.23
2019-03-24T12:08:42.428Z,11.53
2019-03-24T12:11:46.791Z,15.13
2019-03-24T12:14:51.142Z,5.53
2019-03-24T12:17:55.580Z,10.77
2019-03-24T12:21:00.034Z,11.33
2019-03-24T12:24:04.505Z,8.67
2019-03-24T12:27:08.872Z,12.77
2019-03-24T12:30:13.609Z,9.73
2019-03-24T12:33:17.979Z,12.53
2019-03-24T12:36:22.344Z,10.60
2019-03-24T12:39:26.698Z,11.40
2019-03-24T12:42:31.094Z,12.90
2019-03-24T12:45:35.443Z,18.27
2019-03-24T12:48:39.819Z,19.90
2019-03-24T12:51:44.208Z,16.07
2019-03-24T12:54:48.640Z,9.57
2019-03-24T12:57:53.006Z,12.17
2019-03-24T13:00:57.366Z,11.67
2019-03-24T13:04:01.743Z,15.87
2019-03-24T13:07:06.239Z,13.20
2019-03-24T13:10:11.815Z,12.00
2019-03-24T13:13:16.366Z,13.97
2019-03-24T13:16:20.782Z,11.20
2019-03-24T13:19:25.251Z,18.87
2019-03-24T13:22:29.634Z,15.97
2019-03-24T13:25:36.261Z,9.93
2019-03-24T13:28:40.255Z,10.83
2019-03-24T13:31:44.613Z,12.93
2019-03-24T13:34:48.968Z,15.40
2019-03-24T13:37:53.356Z,7.20
2019-03-24T13:40:57.718Z,14.23
2019-03-24T13:44:02.180Z,9.87
2019-03-24T13:47:06.709Z,13.17
2019-03-24T13:50:11.304Z,9.77
2019-03-24T13:53:15.774Z,12.17
2019-03-24T13:56:20.232Z,14.97
2019-03-24T13:59:24.600Z,17.67
2019-03-24T14:02:28.955Z,11.87
2019-03-24T14:05:33.404Z,12.20
2019-03-24T14:08:37.766Z,12.70
2019-03-24T14:11:42.237Z,10.97
2019-03-24T14:14:46.635Z,10.00
2019-03-24T14:17:51.066Z,15.07
2019-03-24T14:20:55.452Z,12.77
2019-03-24T14:23:59.909Z,14.57
2019-03-24T14:27:04.457Z,15.97
2019-03-24T14:30:10.127Z,18.47
2019-03-24T14:33:15.105Z,15.07
2019-03-24T14:36:19.473Z,13.07
2019-03-24T14:39:23.963Z,12.53
2019-03-24T14:42:28.447Z,13.77
2019-03-24T14:45:32.881Z,15.37
2019-03-24T14:48:37.280Z,18.00
2019-03-24T14:51:41.682Z,9.10
2019-03-24T14:54:46.053Z,13.47
2019-03-24T14:57:50.599Z,13.97
2019-03-24T15:00:54.980Z,13.43
2019-03-24T15:03:59.389Z,14.60
2019-03-24T15:07:03.727Z,13.03
2019-03-24T15:10:08.934Z,13.83
2019-03-24T15:13:13.382Z,12.80
2019-03-24T15:16:17.753Z,16.97
2019-03-24T15:19:22.138Z,11.10
2019-03-24T15:22:26.568Z,14.40
2019-03-24T15:25:31.030Z,13.97
2019-03-24T15:28:35.514Z,11.27
2019-03-24T15:31:39.899Z,9.57
2019-03-24T15:34:44.299Z,14.47
2019-03-24T15:37:48.610Z,18.20
2019-03-24T15:40:53.076Z,15.57
2019-03-24T15:43:57.505Z,15.43
2019-03-24T15:47:01.885Z,10.83
2019-03-24T15:50:06.805Z,13.90
2019-03-24T15:53:11.290Z,7.37
2019-03-24T15:56:15.681Z,13.10
2019-03-24T15:59:20.049Z,12.63
2019-03-24T16:02:24.491Z,13.50
2019-03-24T16:05:28.888Z,20.13
2019-03-24T16:08:33.330Z,13.30
2019-03-24T16:11:37.833Z,16.07
2019-03-24T16:14:42.209Z,11.63
2019-03-24T16:17:46.577Z,12.63
2019-03-24T16:20:50.933Z,15.67
2019-03-24T16:23:55.311Z,14.40
2019-03-24T16:26:59.827Z,20.23
2019-03-24T16:30:04.693Z,20.83
2019-03-24T16:33:09.260Z,14.83
2019-03-24T16:36:13.699Z,76.90
2019-03-24T16:39:18.072Z,75.07
2019-03-24T16:42:22.452Z,59.90
2019-03-24T16:45:26.788Z,49.10
2019-03-24T16:48:36.734Z,34.73
2019-03-24T16:51:38.789Z,26.30
2019-03-24T16:54:43.494Z,41.23
2019-03-24T16:57:49.770Z,34.90
2019-03-24T17:00:54.036Z,24.90
2019-03-24T17:03:58.400Z,19.70
2019-03-24T17:07:02.850Z,19.80
2019-03-24T17:10:07.703Z,17.73
2019-03-24T17:13:12.083Z,21.57
2019-03-24T17:16:16.447Z,19.17
2019-03-24T17:19:20.880Z,18.10
2019-03-24T17:22:25.257Z,24.80
2019-03-24T17:25:29.681Z,28.00
2019-03-24T17:28:34.032Z,24.50
2019-03-24T17:31:46.809Z,17.27
2019-03-24T17:34:51.249Z,27.93
2019-03-24T17:37:55.688Z,30.03
2019-03-24T17:41:00.589Z,22.10
2019-03-24T17:44:05.063Z,20.27
2019-03-24T17:47:09.406Z,32.10
2019-03-24T17:50:14.208Z,17.77
2019-03-24T17:53:18.588Z,22.77
2019-03-24T17:56:22.974Z,20.37
2019-03-24T17:59:27.316Z,15.67
2019-03-24T18:02:31.691Z,20.37
2019-03-24T18:05:36.138Z,24.10
2019-03-24T18:08:42.852Z,19.43
2019-03-24T18:11:48.863Z,28.43
2019-03-24T18:14:57.125Z,30.00
2019-03-24T18:18:18.285Z,20.03
2019-03-24T18:21:25.901Z,19.90
2019-03-24T18:24:31.608Z,16.40
2019-03-24T18:27:36.328Z,18.60
2019-03-24T18:30:42.200Z,16.53
2019-03-24T18:33:48.771Z,18.13
2019-03-24T18:36:57.085Z,26.80
2019-03-24T18:40:08.850Z,16.13
2019-03-24T19:01:49.081Z,21.23
2019-03-24T19:13:45.645Z,13.70
2019-03-24T19:35:17.156Z,21.20
2019-03-24T19:43:22.005Z,21.40
2019-03-24T22:54:17.377Z,13.23
2019-03-24T22:58:32.839Z,11.60
2019-03-24T23:06:11.754Z,18.53
2019-03-24T23:09:37.260Z,18.53
2019-03-24T23:12:45.263Z,19.90
2019-03-24T23:15:50.291Z,14.97
2019-03-24T23:18:54.838Z,12.30
2019-03-24T23:21:59.209Z,11.90
2019-03-24T23:25:03.791Z,9.73
2019-03-24T23:28:08.348Z,15.23
2019-03-24T23:31:12.729Z,13.83
2019-03-24T23:34:17.189Z,17.90
2019-03-24T23:37:22.003Z,18.97
2019-03-24T23:40:26.547Z,20.30
2019-03-24T23:43:31.069Z,14.97
2019-03-24T23:46:35.456Z,13.00
2019-03-24T23:49:39.824Z,14.97
2019-03-24T23:52:44.198Z,19.20
2019-03-24T23:55:48.681Z,14.03
2019-03-24T23:58:53.146Z,14.93
